Time;durP1;ratioP1;P1;durP2;ratioP2;P2;SDS_P1;SDS_P2;PMS_P1;PMS_P2;Temp;Humidity;BMP_temperature;BMP_pressure;BME280_temperature;BME280_humidity;BME280_pressure;Samples;Min_cycle;Max_cycle;Signal;HPM_P1;HPM_P2
2023/04/22 00:00:48;;;;;;;9.85;8.27;;;14.80;99.90;;;;;;6041613;23;99741;-72
2023/04/22 00:03:15;;;;;;;10.63;7.90;;;14.70;99.90;;;;;;6066256;23;98491;-72
2023/04/22 00:05:43;;;;;;;10.02;8.50;;;14.70;99.90;;;;;;6065758;23;101793;-72
2023/04/22 00:08:10;;;;;;;9.63;8.65;;;14.70;99.90;;;;;;6065712;23;101462;-72
2023/04/22 00:10:37;;;;;;;9.60;8.75;;;14.70;99.90;;;;;;6092421;23;98463;-72
2023/04/22 00:13:04;;;;;;;10.27;9.38;;;14.70;99.90;;;;;;6066343;23;98479;-72
2023/04/22 00:15:31;;;;;;;9.25;8.45;;;14.70;99.90;;;;;;6065967;23;99774;-72
2023/04/22 00:17:58;;;;;;;9.93;9.02;;;14.70;99.90;;;;;;6092259;23;98937;-72
2023/04/22 00:20:25;;;;;;;10.32;9.43;;;14.60;99.90;;;;;;6066476;23;98522;-73
2023/04/22 00:22:52;;;;;;;10.20;9.23;;;14.60;99.90;;;;;;6092218;23;98566;-72
2023/04/22 00:25:19;;;;;;;10.65;9.65;;;14.50;99.90;;;;;;6091451;23;100018;-72
2023/04/22 00:27:46;;;;;;;11.30;10.10;;;14.50;99.90;;;;;;6091326;23;111233;-72
2023/04/22 00:30:14;;;;;;;9.35;8.55;;;14.50;99.90;;;;;;6065475;23;98501;-72
2023/04/22 00:32:41;;;;;;;9.73;8.85;;;14.40;99.90;;;;;;6092392;23;98483;-72
2023/04/22 00:35:08;;;;;;;10.02;8.95;;;14.40;99.90;;;;;;6091509;23;99266;-72
2023/04/22 00:37:35;;;;;;;9.82;8.93;;;14.30;99.90;;;;;;6065515;23;100175;-72
2023/04/22 00:40:02;;;;;;;9.57;8.77;;;14.30;99.90;;;;;;6066488;23;99355;-72
2023/04/22 00:42:30;;;;;;;10.63;9.73;;;14.20;99.90;;;;;;6092400;23;97767;-72
2023/04/22 00:44:57;;;;;;;11.38;10.27;;;14.20;99.90;;;;;;6041346;23;101801;-72
2023/04/22 00:47:26;;;;;;;11.75;10.65;;;14.10;99.90;;;;;;6091188;23;99144;-73
2023/04/22 00:49:53;;;;;;;13.25;10.25;;;14.10;99.90;;;;;;6064279;23;99916;-72
2023/04/22 00:52:21;;;;;;;10.55;9.55;;;14.10;99.90;;;;;;6041099;23;98599;-72
2023/04/22 00:54:48;;;;;;;11.02;9.95;;;14.00;99.90;;;;;;6065393;23;101929;-72
2023/04/22 00:57:17;;;;;;;10.13;9.13;;;14.00;99.90;;;;;;6042328;23;98972;-72
2023/04/22 00:59:45;;;;;;;11.48;10.38;;;14.00;99.90;;;;;;6066815;23;98597;-72
2023/04/22 01:02:13;;;;;;;10.80;9.68;;;14.00;99.90;;;;;;6041387;23;99012;-72
2023/04/22 01:04:40;;;;;;;10.85;9.82;;;14.00;99.90;;;;;;6041338;23;101925;-72
2023/04/22 01:07:07;;;;;;;10.50;9.50;;;13.90;99.90;;;;;;6065571;23;101770;-72
2023/04/22 01:09:35;;;;;;;12.35;11.13;;;13.90;99.90;;;;;;6066576;23;99055;-72
2023/04/22 01:12:02;;;;;;;10.88;9.77;;;13.80;99.90;;;;;;6064927;23;98586;-72
2023/04/22 01:14:29;;;;;;;11.38;10.27;;;13.70;99.90;;;;;;6064798;23;102912;-72
2023/04/22 01:16:56;;;;;;;12.82;11.48;;;13.60;99.90;;;;;;6064528;23;102326;-72
2023/04/22 01:19:24;;;;;;;11.38;10.30;;;13.60;99.90;;;;;;6064993;23;98582;-72
2023/04/22 01:21:53;;;;;;;12.00;10.80;;;13.60;99.90;;;;;;6065586;23;98500;-72
2023/04/22 01:24:20;;;;;;;11.20;10.20;;;13.60;99.90;;;;;;6091006;23;99257;-72
2023/04/22 01:26:48;;;;;;;12.35;11.35;;;13.50;99.90;;;;;;6040771;23;105239;-72
2023/04/22 01:29:15;;;;;;;12.88;11.57;;;13.40;99.90;;;;;;6064919;23;98573;-72
2023/04/22 01:31:42;;;;;;;14.05;12.75;;;13.40;99.90;;;;;;6066121;23;97843;-72
2023/04/22 01:34:10;;;;;;;11.80;10.70;;;13.30;99.90;;;;;;6040127;23;102145;-72
2023/04/22 01:36:38;;;;;;;13.50;12.23;;;13.30;99.90;;;;;;6064790;23;101505;-72
2023/04/22 01:39:06;;;;;;;15.48;12.68;;;13.20;99.90;;;;;;6090767;23;99206;-72
2023/04/22 01:41:34;;;;;;;13.07;11.85;;;13.10;99.90;;;;;;6064469;23;98530;-72
2023/04/22 01:44:03;;;;;;;14.65;12.55;;;13.10;99.90;;;;;;6064730;23;100297;-72
2023/04/22 01:46:32;;;;;;;13.32;12.13;;;13.00;99.90;;;;;;6065339;23;99098;-72
2023/04/22 01:48:59;;;;;;;13.43;12.13;;;12.90;99.90;;;;;;6064659;23;98486;-72
2023/04/22 01:51:26;;;;;;;14.55;12.88;;;12.90;99.90;;;;;;6065096;23;98610;-72
2023/04/22 01:53:55;;;;;;;16.52;13.70;;;12.80;99.90;;;;;;6040711;23;101558;-72
2023/04/22 01:56:22;;;;;;;15.68;13.88;;;12.80;99.90;;;;;;6091053;23;98934;-72
2023/04/22 01:58:49;;;;;;;16.23;14.57;;;12.70;99.90;;;;;;6065194;23;98737;-72
2023/04/22 02:01:16;;;;;;;14.95;13.52;;;12.70;99.90;;;;;;6040740;23;98488;-72
2023/04/22 02:03:43;;;;;;;15.90;14.30;;;12.60;99.90;;;;;;6039884;23;102538;-72
2023/04/22 02:06:12;;;;;;;16.00;14.40;;;12.60;99.90;;;;;;6090721;23;99826;-72
2023/04/22 02:08:39;;;;;;;14.93;13.52;;;12.50;99.90;;;;;;6040915;23;98479;-72
2023/04/22 02:11:06;;;;;;;15.80;14.23;;;12.50;99.90;;;;;;6064771;23;98540;-72
2023/04/22 02:13:35;;;;;;;15.57;14.15;;;12.50;99.90;;;;;;6090904;23;99881;-72
2023/04/22 02:16:03;;;;;;;16.90;15.02;;;12.40;99.90;;;;;;6064027;23;101601;-72
2023/04/22 02:18:30;;;;;;;15.63;14.05;;;12.40;99.90;;;;;;6091431;23;99028;-72
2023/04/22 02:20:57;;;;;;;16.95;15.15;;;12.30;99.90;;;;;;6065593;23;97781;-72
2023/04/22 02:23:24;;;;;;;16.08;14.43;;;12.30;99.90;;;;;;6090541;23;99498;-72
2023/04/22 02:25:51;;;;;;;15.52;14.07;;;12.20;99.90;;;;;;6064446;23;109562;-72
2023/04/22 02:28:18;;;;;;;15.07;13.65;;;12.20;99.90;;;;;;6040156;23;99423;-72
2023/04/22 02:30:45;;;;;;;15.35;13.85;;;12.20;99.90;;;;;;6091207;23;98489;-72
2023/04/22 02:33:13;;;;;;;16.90;14.20;;;12.10;99.90;;;;;;6039989;23;101688;-72
2023/04/22 02:35:40;;;;;;;16.00;14.43;;;12.10;99.90;;;;;;6040231;23;101638;-72
2023/04/22 02:38:09;;;;;;;13.85;12.45;;;12.00;99.90;;;;;;6040435;23;98507;-72
2023/04/22 02:40:36;;;;;;;14.07;12.70;;;12.00;99.90;;;;;;6041131;23;98515;-71
2023/04/22 02:43:03;;;;;;;15.02;13.60;;;12.00;99.90;;;;;;6062977;23;101858;-72
2023/04/22 02:45:30;;;;;;;15.25;13.65;;;11.90;99.90;;;;;;6062691;23;102044;-72
2023/04/22 02:47:57;;;;;;;17.25;15.52;;;11.90;99.90;;;;;;6038427;23;98560;-72
2023/04/22 02:50:24;;;;;;;16.13;14.43;;;11.90;99.90;;;;;;6038282;23;98472;-72
2023/04/22 02:52:51;;;;;;;17.48;15.68;;;11.80;99.90;;;;;;6037135;23;102210;-72
2023/04/22 02:55:18;;;;;;;14.75;13.40;;;11.80;99.90;;;;;;6037774;23;102320;-72
2023/04/22 02:57:45;;;;;;;16.77;14.98;;;11.70;99.90;;;;;;6037811;23;102596;-72
2023/04/22 03:00:12;;;;;;;15.55;13.95;;;11.70;99.90;;;;;;6014185;23;98603;-72
2023/04/22 03:02:39;;;;;;;16.25;14.63;;;11.60;99.90;;;;;;6062168;23;101992;-72
2023/04/22 03:05:10;;;;;;;16.77;14.32;;;11.60;99.90;;;;;;6038420;23;100031;-72
2023/04/22 03:07:37;;;;;;;16.13;14.63;;;11.60;99.90;;;;;;6062534;23;98539;-72
2023/04/22 03:10:05;;;;;;;14.40;12.90;;;11.50;99.90;;;;;;6062988;23;97812;-73
2023/04/22 03:12:33;;;;;;;13.45;12.15;;;11.50;99.90;;;;;;6038058;23;101938;-72
2023/04/22 03:15:01;;;;;;;14.70;13.35;;;11.40;99.90;;;;;;6061818;23;101403;-72
2023/04/22 03:17:30;;;;;;;14.13;12.68;;;11.40;99.90;;;;;;6061625;23;99272;-72
2023/04/22 03:20:00;;;;;;;14.90;13.40;;;11.40;99.90;;;;;;6038798;23;98652;-72
2023/04/22 03:22:27;;;;;;;13.73;12.52;;;11.30;99.90;;;;;;6037688;23;101779;-72
2023/04/22 03:24:56;;;;;;;14.02;12.70;;;11.30;99.90;;;;;;6038525;23;101429;-72
2023/04/22 03:27:23;;;;;;;12.73;11.52;;;11.30;99.90;;;;;;6014432;23;98992;-72
2023/04/22 03:29:50;;;;;;;13.10;11.48;;;11.30;99.90;;;;;;6038644;23;98637;-72
2023/04/22 03:32:17;;;;;;;11.63;10.43;;;11.30;99.90;;;;;;6061906;23;102054;-73
2023/04/22 03:34:46;;;;;;;11.57;10.48;;;11.40;99.90;;;;;;6014711;23;99913;-72
2023/04/22 03:37:13;;;;;;;12.85;11.65;;;11.40;99.90;;;;;;6062222;23;98504;-72
2023/04/22 03:39:40;;;;;;;14.13;11.85;;;11.40;99.90;;;;;;6062444;23;98586;-72
2023/04/22 03:42:10;;;;;;;12.05;10.85;;;11.40;99.90;;;;;;6036488;23;101055;-72
2023/04/22 03:44:40;;;;;;;15.27;12.23;;;11.50;99.90;;;;;;5994058;23;1499148;-72
2023/04/22 03:47:08;;;;;;;12.45;11.25;;;11.50;99.90;;;;;;6059378;23;98577;-72
2023/04/22 03:49:43;;;;;;;12.20;11.20;;;11.50;99.90;;;;;;6084212;23;98555;-72
2023/04/22 03:52:10;;;;;;;12.77;11.43;;;11.50;99.90;;;;;;6035061;23;102032;-72
2023/04/22 03:54:42;;;;;;;12.82;11.27;;;11.50;99.90;;;;;;6059153;23;101201;-72
2023/04/22 03:57:09;;;;;;;12.18;11.00;;;11.50;99.90;;;;;;6059254;23;98460;-72
2023/04/22 03:59:37;;;;;;;12.73;11.52;;;11.50;99.90;;;;;;6059292;23;97821;-72
2023/04/22 04:02:06;;;;;;;12.73;11.50;;;11.50;99.90;;;;;;6034874;23;101624;-72
2023/04/22 04:04:33;;;;;;;12.93;11.27;;;11.50;99.90;;;;;;6083167;23;101264;-72
2023/04/22 04:07:00;;;;;;;13.40;11.18;;;11.50;99.90;;;;;;6060330;23;99197;-73
2023/04/22 04:09:28;;;;;;;13.13;11.82;;;11.50;99.90;;;;;;6060592;23;98610;-72
2023/04/22 04:11:55;;;;;;;13.13;11.82;;;11.50;99.90;;;;;;6060388;23;101882;-72
2023/04/22 04:14:23;;;;;;;13.07;11.80;;;11.50;99.90;;;;;;6060131;23;101288;-72
2023/04/22 04:16:50;;;;;;;13.00;11.85;;;11.50;99.90;;;;;;6060712;23;99078;-72
2023/04/22 04:19:29;;;;;;;13.88;12.35;;;11.50;99.90;;;;;;6060322;23;98595;-72
2023/04/22 04:21:56;;;;;;;13.30;12.10;;;11.50;99.90;;;;;;6060263;23;101709;-72
2023/04/22 04:24:25;;;;;;;14.57;13.05;;;11.40;99.90;;;;;;6060181;23;101024;-72
2023/04/22 04:26:59;;;;;;;12.65;11.40;;;11.40;99.90;;;;;;6060586;23;98630;-72
2023/04/22 04:29:31;;;;;;;13.45;11.90;;;11.40;99.90;;;;;;6060496;23;98553;-72
2023/04/22 04:32:08;;;;;;;14.07;12.73;;;11.30;99.90;;;;;;6037730;23;102402;-72
2023/04/22 04:34:37;;;;;;;14.60;13.10;;;11.30;99.90;;;;;;6059829;23;102195;-72
2023/04/22 04:37:06;;;;;;;13.93;12.18;;;11.30;99.90;;;;;;6060304;23;98580;-73
2023/04/22 04:39:42;;;;;;;13.02;11.75;;;11.30;99.90;;;;;;6037853;23;98591;-72
2023/04/22 04:42:11;;;;;;;13.30;12.00;;;11.30;99.90;;;;;;6060127;23;101167;-72
2023/04/22 04:44:49;;;;;;;13.52;12.23;;;11.20;99.90;;;;;;6037328;23;100040;-72
2023/04/22 04:47:18;;;;;;;13.60;12.27;;;11.30;99.90;;;;;;6060483;23;98695;-72
2023/04/22 04:49:46;;;;;;;13.27;11.88;;;11.30;99.90;;;;;;6060797;23;97844;-72
2023/04/22 04:52:13;;;;;;;12.90;11.63;;;11.30;99.90;;;;;;6060081;23;101611;-72
2023/04/22 04:54:40;;;;;;;13.48;12.18;;;11.40;99.90;;;;;;6059886;23;101419;-72
2023/04/22 04:57:09;;;;;;;13.45;12.15;;;11.40;99.90;;;;;;6059830;23;99255;-72
2023/04/22 04:59:37;;;;;;;13.90;12.48;;;11.50;99.90;;;;;;6060093;23;98668;-72
2023/04/22 05:02:04;;;;;;;15.80;11.85;;;11.50;99.90;;;;;;6059973;23;101438;-72
2023/04/22 05:04:32;;;;;;;13.40;12.00;;;11.60;99.90;;;;;;6059696;23;101562;-72
2023/04/22 05:06:59;;;;;;;14.38;12.88;;;11.70;99.90;;;;;;6060440;23;98587;-72
2023/04/22 05:09:27;;;;;;;13.88;12.48;;;11.70;99.90;;;;;;6060339;23;99041;-72
2023/04/22 05:11:54;;;;;;;13.77;12.20;;;11.80;99.90;;;;;;6060000;23;101707;-72
2023/04/22 05:14:24;;;;;;;14.20;12.43;;;11.90;99.90;;;;;;6060148;23;101637;-72
2023/04/22 05:16:51;;;;;;;15.57;12.68;;;11.90;99.90;;;;;;6035617;23;98526;-72
2023/04/22 05:19:18;;;;;;;13.13;11.93;;;12.00;99.90;;;;;;6060292;23;98529;-72
2023/04/22 05:21:46;;;;;;;12.27;11.07;;;12.00;99.90;;;;;;6059129;23;101852;-72
2023/04/22 05:24:14;;;;;;;13.35;11.93;;;12.10;99.90;;;;;;6084611;23;101881;-72
2023/04/22 05:26:41;;;;;;;13.93;12.57;;;12.10;99.90;;;;;;6060102;23;98501;-72
2023/04/22 05:29:14;;;;;;;13.95;12.55;;;12.20;99.90;;;;;;6060500;23;98948;-72
2023/04/22 05:31:41;;;;;;;12.38;11.23;;;12.20;99.90;;;;;;6061413;23;99199;-72
2023/04/22 05:34:08;;;;;;;14.98;12.15;;;12.30;99.90;;;;;;6060059;23;101674;-72
2023/04/22 05:36:36;;;;;;;15.05;11.85;;;12.40;99.90;;;;;;6060422;23;99138;-72
2023/04/22 05:39:03;;;;;;;14.30;11.68;;;12.50;99.90;;;;;;6060807;23;97800;-72
2023/04/22 05:41:31;;;;;;;13.70;12.30;;;12.60;99.90;;;;;;6059647;23;101248;-72
2023/04/22 05:43:59;;;;;;;15.15;12.63;;;12.60;99.90;;;;;;6059481;23;101783;-72
2023/04/22 05:46:27;;;;;;;13.10;11.10;;;12.70;99.90;;;;;;6059653;23;99310;-72
2023/04/22 05:48:55;;;;;;;14.05;11.50;;;12.80;99.90;;;;;;6060507;23;99114;-71
2023/04/22 05:51:41;;;;;;;13.93;11.70;;;12.90;99.90;;;;;;6061514;23;98869;-72
2023/04/22 05:54:10;;;;;;;12.60;11.30;;;12.90;99.90;;;;;;6059645;23;101144;-72
2023/04/22 05:56:37;;;;;;;12.13;10.68;;;13.00;99.90;;;;;;6084769;23;99083;-72
2023/04/22 05:59:04;;;;;;;12.05;10.70;;;13.10;99.90;;;;;;6060345;23;98870;-72
2023/04/22 06:01:31;;;;;;;12.57;11.38;;;13.20;99.90;;;;;;6059567;23;101924;-72
2023/04/22 06:04:05;;;;;;;;;;;13.20;99.90;;;;;;6060648;23;101035;-72
2023/04/22 06:06:32;;;;;;;11.98;10.77;;;13.30;99.90;;;;;;6037883;23;98462;-72
2023/04/22 06:08:59;;;;;;;10.90;9.98;;;13.30;99.90;;;;;;6060048;23;98543;-72
2023/04/22 06:11:27;;;;;;;12.75;11.05;;;13.40;99.90;;;;;;6061214;23;99726;-72
2023/04/22 06:13:54;;;;;;;11.95;10.75;;;13.50;99.90;;;;;;6059434;23;102331;-72
2023/04/22 06:16:22;;;;;;;12.43;11.23;;;13.50;99.90;;;;;;6060031;23;98566;-72
2023/04/22 06:18:49;;;;;;;12.43;11.30;;;13.60;99.90;;;;;;6059908;23;98992;-72
2023/04/22 06:21:16;;;;;;;11.98;10.77;;;13.70;99.90;;;;;;6059658;23;101860;-72
2023/04/22 06:23:43;;;;;;;11.30;10.15;;;13.70;99.90;;;;;;6059599;23;99012;-72
2023/04/22 06:26:10;;;;;;;12.07;10.88;;;13.70;99.90;;;;;;6060103;23;98583;-73
2023/04/22 06:28:37;;;;;;;12.63;11.13;;;13.80;99.90;;;;;;6036193;23;98235;-72
2023/04/22 06:31:09;;;;;;;11.60;10.55;;;13.90;99.90;;;;;;6059762;23;101491;-72
2023/04/22 06:33:37;;;;;;;12.00;10.80;;;13.90;99.90;;;;;;6035274;23;101381;-72
2023/04/22 06:36:04;;;;;;;12.23;11.07;;;14.00;99.90;;;;;;6059577;23;99233;-73
2023/04/22 06:38:33;;;;;;;13.27;11.90;;;14.10;99.90;;;;;;6059717;23;98544;-72
2023/04/22 06:41:25;;;;;;;13.30;12.00;;;14.20;99.90;;;;;;6040375;23;101659;-72
2023/04/22 06:43:56;;;;;;;12.45;11.15;;;14.30;99.90;;;;;;6083681;23;101414;-72
2023/04/22 06:46:41;;;;;;;12.73;11.02;;;14.40;99.90;;;;;;6060076;23;98437;-72
2023/04/22 06:49:47;;;;;;;12.32;11.15;;;14.40;99.90;;;;;;6044281;23;98570;-72
2023/04/22 06:52:27;;;;;;;12.32;11.13;;;14.40;99.90;;;;;;6059211;23;101505;-72
2023/04/22 06:54:56;;;;;;;11.82;10.63;;;14.50;99.90;;;;;;6059030;23;100794;-72
2023/04/22 06:57:23;;;;;;;11.85;10.77;;;14.60;99.90;;;;;;6059072;23;98547;-72
2023/04/22 06:59:50;;;;;;;12.77;11.23;;;14.80;99.90;;;;;;6083809;23;98493;-73
2023/04/22 07:02:17;;;;;;;13.30;12.02;;;14.90;99.90;;;;;;6058952;23;102437;-72
2023/04/22 07:04:44;;;;;;;11.90;10.80;;;15.00;99.90;;;;;;6058783;23;102139;-72
2023/04/22 07:07:12;;;;;;;12.02;10.82;;;15.10;99.90;;;;;;6059455;23;98626;-72
2023/04/22 07:09:40;;;;;;;11.70;10.60;;;15.20;99.90;;;;;;6059188;23;98899;-72
2023/04/22 07:12:07;;;;;;;10.13;9.23;;;15.30;99.90;;;;;;6058970;23;101487;-72
2023/04/22 07:14:34;;;;;;;10.98;9.90;;;15.40;99.90;;;;;;6059951;23;98984;-72
2023/04/22 07:17:01;;;;;;;11.20;10.10;;;15.50;99.90;;;;;;6059606;23;98580;-73
2023/04/22 07:19:28;;;;;;;12.00;10.90;;;15.60;99.90;;;;;;6084520;23;97782;-72
2023/04/22 07:21:55;;;;;;;12.00;10.60;;;15.90;99.90;;;;;;6058770;23;101754;-73
2023/04/22 07:24:22;;;;;;;10.90;9.95;;;16.10;99.90;;;;;;6083516;23;99029;-72
2023/04/22 07:26:49;;;;;;;12.57;11.40;;;16.20;99.90;;;;;;6061899;23;99211;-79
2023/04/22 07:29:16;;;;;;;10.68;9.57;;;16.30;99.90;;;;;;6061362;23;99111;-80
2023/04/22 07:31:43;;;;;;;11.63;10.45;;;16.40;99.90;;;;;;6034932;23;116497;-79
2023/04/22 07:34:10;;;;;;;10.25;9.23;;;16.50;99.90;;;;;;6060527;23;99058;-79
2023/04/22 07:36:37;;;;;;;9.40;8.50;;;16.50;99.90;;;;;;6061921;23;98527;-80
2023/04/22 07:39:04;;;;;;;11.45;10.25;;;16.50;99.90;;;;;;6060446;23;98629;-79
2023/04/22 07:41:31;;;;;;;11.93;10.82;;;16.60;99.90;;;;;;6062112;23;99302;-80
2023/04/22 07:43:59;;;;;;;10.68;9.57;;;16.80;99.90;;;;;;6084890;23;98961;-79
2023/04/22 07:46:26;;;;;;;10.07;9.18;;;16.90;99.90;;;;;;6061479;23;98848;-79
2023/04/22 07:48:53;;;;;;;11.02;10.00;;;16.90;99.90;;;;;;6061189;23;98628;-80
2023/04/22 07:51:20;;;;;;;11.65;8.95;;;17.10;99.90;;;;;;6059820;23;102204;-79
2023/04/22 07:53:47;;;;;;;10.13;8.95;;;17.20;99.90;;;;;;6060708;23;102324;-80
2023/04/22 07:56:14;;;;;;;11.90;9.95;;;17.30;99.90;;;;;;6061456;23;98934;-79
2023/04/22 07:58:40;;;;;;;10.20;8.95;;;17.60;99.90;;;;;;6037377;23;98817;-79
2023/04/22 08:01:07;;;;;;;10.88;9.80;;;17.80;99.90;;;;;;6085246;23;99358;-80
2023/04/22 08:03:34;;;;;;;10.30;9.30;;;17.90;99.90;;;;;;6061139;23;99007;-79
2023/04/22 08:06:01;;;;;;;9.20;8.35;;;18.10;99.90;;;;;;6060869;23;98552;-80
2023/04/22 08:08:29;;;;;;;9.80;8.90;;;18.20;99.90;;;;;;6086373;23;97754;-80
2023/04/22 08:10:55;;;;;;;10.75;9.75;;;18.50;99.90;;;;;;6061848;23;112080;-79
2023/04/22 08:13:22;;;;;;;10.85;9.77;;;18.70;99.90;;;;;;6061010;23;98907;-80
2023/04/22 08:15:49;;;;;;;10.68;9.75;;;18.90;99.90;;;;;;6062465;23;99196;-80
2023/04/22 08:18:16;;;;;;;9.23;8.43;;;19.10;99.90;;;;;;6062938;23;98520;-80
2023/04/22 08:20:43;;;;;;;10.57;9.68;;;19.30;99.90;;;;;;6061025;23;99172;-80
2023/04/22 08:23:10;;;;;;;9.15;8.40;;;19.50;99.90;;;;;;6060498;23;101732;-79
2023/04/22 08:25:38;;;;;;;9.63;8.68;;;19.80;99.90;;;;;;6062553;23;98525;-80
2023/04/22 08:28:04;;;;;;;9.50;8.75;;;20.20;99.80;;;;;;6062648;23;98487;-79
2023/04/22 08:30:31;;;;;;;10.70;9.70;;;20.60;99.10;;;;;;6061104;23;99267;-80
2023/04/22 08:32:58;;;;;;;9.55;8.05;;;21.00;98.70;;;;;;6062603;23;99024;-79
2023/04/22 08:35:57;;;;;;;8.43;7.45;;;21.10;97.90;;;;;;6061192;23;98507;-80
2023/04/22 08:38:25;;;;;;;9.20;8.05;;;21.20;96.70;;;;;;6085779;23;98537;-79
2023/04/22 08:40:55;;;;;;;9.02;8.23;;;21.10;97.40;;;;;;6060334;23;100094;-79
2023/04/22 08:43:25;;;;;;;11.43;8.10;;;21.20;96.80;;;;;;6060127;23;102339;-79
2023/04/22 08:45:52;;;;;;;9.02;8.32;;;21.30;96.90;;;;;;6063165;23;98427;-80
2023/04/22 08:48:19;;;;;;;8.13;7.38;;;21.40;96.40;;;;;;6062987;23;98426;-80
2023/04/22 08:50:47;;;;;;;8.00;7.25;;;21.50;96.60;;;;;;6061079;23;99344;-79
2023/04/22 08:53:15;;;;;;;8.90;8.00;;;21.70;96.60;;;;;;6060106;23;101487;-80
2023/04/22 08:55:50;;;;;;;8.63;7.90;;;21.70;96.40;;;;;;6061494;23;98551;-80
2023/04/22 08:58:18;;;;;;;9.98;8.10;;;21.60;95.80;;;;;;6063045;23;98218;-79
2023/04/22 09:00:45;;;;;;;9.30;8.45;;;21.40;96.50;;;;;;6060896;23;99258;-79
2023/04/22 09:03:19;;;;;;;9.82;8.98;;;21.00;96.50;;;;;;6060380;23;108043;-79
2023/04/22 09:05:50;;;;;;;9.07;7.97;;;20.80;97.10;;;;;;6085249;23;99241;-79
2023/04/22 09:08:22;;;;;;;8.95;8.10;;;20.70;97.50;;;;;;6062675;23;98377;-79
2023/04/22 09:10:49;;;;;;;8.80;7.75;;;20.50;97.20;;;;;;6060568;23;100268;-79
2023/04/22 09:13:17;;;;;;;10.77;7.55;;;20.30;97.70;;;;;;6061893;23;99011;-79
2023/04/22 09:15:45;;;;;;;8.60;6.93;;;20.20;98.00;;;;;;6062991;23;98378;-79
2023/04/22 09:18:17;;;;;;;9.18;8.27;;;20.10;97.90;;;;;;6036629;23;98657;-79
2023/04/22 09:20:47;;;;;;;9.02;7.82;;;20.00;98.10;;;;;;6062316;23;99893;-79
2023/04/22 09:23:14;;;;;;;7.93;7.20;;;20.00;98.20;;;;;;6060730;23;98989;-78
2023/04/22 09:25:44;;;;;;;8.70;7.53;;;20.10;98.50;;;;;;6062677;23;98990;-78
2023/04/22 09:28:15;;;;;;;9.23;7.75;;;20.20;98.40;;;;;;6060957;23;98555;-77
2023/04/22 09:30:44;;;;;;;8.32;7.43;;;20.30;98.20;;;;;;6061776;23;99951;-77
2023/04/22 09:33:16;;;;;;;8.40;7.53;;;20.40;98.10;;;;;;6060389;23;99783;-77
2023/04/22 09:35:43;;;;;;;9.15;7.18;;;20.40;98.00;;;;;;6060931;23;98554;-78
2023/04/22 09:38:11;;;;;;;7.45;6.82;;;20.40;97.70;;;;;;6062613;23;99032;-77
2023/04/22 09:40:43;;;;;;;7.78;7.07;;;20.50;97.80;;;;;;6060282;23;101918;-78
2023/04/22 09:43:10;;;;;;;8.02;7.22;;;20.60;97.90;;;;;;6039891;23;101707;-77
2023/04/22 09:45:40;;;;;;;7.25;6.55;;;20.50;97.60;;;;;;6042172;23;98497;-77
2023/04/22 09:48:09;;;;;;;7.70;6.10;;;20.60;97.50;;;;;;6092242;23;97837;-77
2023/04/22 09:50:38;;;;;;;7.53;6.75;;;20.70;96.80;;;;;;6065598;23;99317;-77
2023/04/22 09:53:08;;;;;;;6.88;6.28;;;20.80;97.10;;;;;;6090872;23;104700;-77
2023/04/22 09:55:40;;;;;;;6.63;5.90;;;21.00;96.70;;;;;;6091563;23;99242;-77
2023/04/22 09:58:10;;;;;;;6.97;6.28;;;21.20;96.00;;;;;;6091614;23;98581;-77
2023/04/22 10:00:55;;;;;;;6.25;5.63;;;21.40;95.80;;;;;;6065406;23;100296;-77
2023/04/22 10:03:22;;;;;;;7.35;6.45;;;21.40;95.10;;;;;;6090900;23;98854;-77
2023/04/22 10:05:49;;;;;;;8.10;5.95;;;21.40;94.80;;;;;;6091796;23;98492;-77
2023/04/22 10:08:17;;;;;;;7.72;5.90;;;21.60;95.00;;;;;;6091623;23;98643;-77
2023/04/22 10:10:45;;;;;;;6.28;5.75;;;21.90;94.60;;;;;;6065666;23;98973;-77
2023/04/22 10:13:12;;;;;;;6.57;5.70;;;22.20;94.50;;;;;;6065699;23;99708;-77
2023/04/22 10:15:48;;;;;;;6.20;5.53;;;22.40;94.10;;;;;;6041470;23;98718;-77
2023/04/22 10:18:22;;;;;;;6.63;5.03;;;22.70;93.70;;;;;;6065371;23;98715;-77
2023/04/22 10:20:50;;;;;;;6.00;5.50;;;22.90;93.30;;;;;;6091104;23;100048;-77
2023/04/22 10:23:19;;;;;;;6.05;5.55;;;23.00;92.70;;;;;;6064870;23;105661;-77
2023/04/22 10:25:53;;;;;;;6.32;5.80;;;23.00;92.40;;;;;;6091917;23;98368;-78
2023/04/22 10:28:22;;;;;;;6.40;5.80;;;23.00;92.30;;;;;;6092079;23;99017;-77
2023/04/22 10:30:50;;;;;;;6.45;5.88;;;22.90;92.40;;;;;;6091414;23;99306;-77
2023/04/22 10:33:37;;;;;;;6.07;5.57;;;22.80;92.50;;;;;;6040670;23;105107;-77
2023/04/22 10:36:14;;;;;;;6.10;5.57;;;23.00;92.00;;;;;;6092081;23;98434;-78
2023/04/22 10:38:53;;;;;;;6.38;5.80;;;22.90;92.10;;;;;;6092135;23;97657;-77
2023/04/22 10:41:24;;;;;;;8.65;5.35;;;23.00;91.90;;;;;;6091066;23;99360;-77
2023/04/22 10:43:59;;;;;;;12.30;5.55;;;22.90;91.90;;;;;;6059860;23;102931;-77
2023/04/22 10:46:43;;;;;;;6.63;5.97;;;22.90;91.30;;;;;;6035993;23;99311;-77
2023/04/22 10:49:12;;;;;;;5.90;5.35;;;22.80;91.50;;;;;;6060738;23;98506;-77
2023/04/22 10:51:40;;;;;;;5.43;4.90;;;22.80;91.60;;;;;;6059908;23;101736;-77
2023/04/22 10:57:03;;;;;;;6.22;5.25;;;22.70;91.40;;;;;;6062159;23;98520;-77
2023/04/22 10:59:32;;;;;;;5.25;4.85;;;22.80;91.40;;;;;;6060567;23;99074;-77
2023/04/22 11:02:06;;;;;;;6.65;6.13;;;22.80;91.20;;;;;;6060376;23;99340;-77
2023/04/22 11:04:33;;;;;;;5.82;5.32;;;22.80;91.00;;;;;;6085091;23;98947;-77
2023/04/22 11:07:25;;;;;;;5.88;5.38;;;22.60;91.20;;;;;;6084494;23;100902;-77
2023/04/22 11:10:00;;;;;;;6.90;6.30;;;22.70;91.10;;;;;;6060646;23;98478;-77
2023/04/22 11:12:38;;;;;;;6.65;6.15;;;22.70;91.20;;;;;;6083883;23;99882;-77
2023/04/22 11:15:16;;;;;;;7.75;6.97;;;22.60;91.10;;;;;;6062687;23;99467;-77
2023/04/22 11:17:45;;;;;;;6.45;5.85;;;22.40;91.20;;;;;;6061792;23;98558;-77
2023/04/22 11:20:17;;;;;;;7.03;6.05;;;22.50;91.80;;;;;;6063430;23;98466;-77
2023/04/22 11:22:46;;;;;;;6.07;5.57;;;22.60;91.70;;;;;;6061324;23;100440;-77
2023/04/22 11:25:14;;;;;;;6.80;6.28;;;22.80;91.60;;;;;;6062934;23;99022;-77
2023/04/22 11:27:42;;;;;;;5.63;5.13;;;22.90;91.30;;;;;;6063305;23;98536;-77
2023/04/22 11:30:15;;;;;;;6.05;4.75;;;23.10;91.30;;;;;;6063661;23;97753;-77
2023/04/22 11:32:50;;;;;;;5.78;5.28;;;23.20;90.90;;;;;;6062887;23;100307;-77
2023/04/22 11:35:21;;;;;;;5.93;5.30;;;23.40;90.80;;;;;;6061544;23;101459;-77
2023/04/22 11:37:50;;;;;;;6.30;5.70;;;23.60;90.60;;;;;;6061282;23;99254;-77
2023/04/22 11:40:20;;;;;;;6.25;5.63;;;23.80;90.50;;;;;;6063303;23;99182;-77
2023/04/22 11:42:58;;;;;;;6.38;5.78;;;23.80;90.50;;;;;;6063993;23;99168;-77
2023/04/22 11:45:26;;;;;;;6.90;5.22;;;23.80;90.30;;;;;;6065777;23;105661;-78
2023/04/22 11:47:54;;;;;;;6.88;5.65;;;23.90;90.50;;;;;;6092641;23;98526;-77
2023/04/22 11:50:24;;;;;;;5.88;4.50;;;23.80;89.60;;;;;;6092701;23;99007;-77
2023/04/22 11:52:54;;;;;;;8.02;5.63;;;23.80;88.80;;;;;;6066083;23;101649;-77
2023/04/22 11:55:21;;;;;;;6.13;4.97;;;23.80;88.60;;;;;;6066236;23;101474;-77
2023/04/22 11:58:15;;;;;;;5.30;4.80;;;23.80;89.70;;;;;;6066968;23;98901;-77
2023/04/22 12:00:48;;;;;;;5.68;5.18;;;23.90;90.10;;;;;;6066413;23;98498;-77
2023/04/22 12:03:24;;;;;;;6.85;5.47;;;23.50;89.20;;;;;;6091847;23;99982;-77
2023/04/22 12:05:51;;;;;;;6.50;5.90;;;23.60;89.20;;;;;;6065598;23;100600;-77
2023/04/22 12:08:21;;;;;;;6.05;5.50;;;23.60;89.90;;;;;;6092759;23;98392;-77
2023/04/22 12:10:52;;;;;;;7.30;6.45;;;23.60;89.80;;;;;;6092510;23;98467;-77
2023/04/22 12:13:28;;;;;;;7.10;6.05;;;23.50;89.50;;;;;;6066342;23;99141;-77
2023/04/22 12:15:57;;;;;;;8.23;6.18;;;23.50;90.00;;;;;;6092164;23;98620;-77
2023/04/22 12:18:36;;;;;;;6.88;6.18;;;23.40;90.20;;;;;;6066507;23;98855;-77
2023/04/22 12:21:06;;;;;;;7.75;7.15;;;23.40;90.00;;;;;;6092924;23;97736;-77
2023/04/22 12:23:51;;;;;;;7.53;6.75;;;23.40;90.20;;;;;;6066020;23;99378;-77
2023/04/22 12:26:20;;;;;;;7.28;6.55;;;23.30;89.90;;;;;;6041364;23;106692;-77
2023/04/22 12:28:50;;;;;;;7.78;7.00;;;23.30;90.10;;;;;;6065794;23;99392;-78
2023/04/22 12:31:17;;;;;;;7.50;6.80;;;23.50;89.80;;;;;;6042017;23;98598;-77
2023/04/22 12:33:45;;;;;;;7.38;6.72;;;23.50;89.70;;;;;;6091835;23;99290;-77
2023/04/22 12:36:12;;;;;;;7.22;6.60;;;23.50;89.30;;;;;;6065704;23;101672;-78
2023/04/22 12:38:40;;;;;;;6.47;5.97;;;23.60;89.40;;;;;;6066261;23;98566;-77
2023/04/22 12:41:07;;;;;;;7.90;6.57;;;23.80;89.10;;;;;;6066758;23;99013;-77
2023/04/22 12:43:35;;;;;;;6.60;6.07;;;23.90;89.20;;;;;;6065386;23;101690;-77
2023/04/22 12:46:03;;;;;;;7.57;6.97;;;24.10;88.60;;;;;;6066963;23;99095;-77